Time;durP1;ratioP1;P1;durP2;ratioP2;P2;SDS_P1;SDS_P2;PMS_P1;PMS_P2;Temp;Humidity;BMP_temperature;BMP_pressure;BME280_temperature;BME280_humidity;BME280_pressure;Samples;Min_cycle;Max_cycle;Signal;HPM_P1;HPM_P2
2024/01/23 00:00:38;;;;;;;6.37;6.10;;;8.70;36.20;;;;;;6080551;23;20447;-81
2024/01/23 00:05:03;;;;;;;6.60;6.40;;;8.90;34.80;;;;;;6190650;23;20536;-81
2024/01/23 00:17:41;;;;;;;7.00;6.60;;;9.10;33.90;;;;;;6226059;23;20458;-81
2024/01/23 00:20:17;;;;;;;6.80;6.60;;;9.20;32.30;;;;;;6221789;23;20447;-81
2024/01/23 00:22:42;;;;;;;6.73;6.43;;;9.00;32.80;;;;;;6263369;22;20477;-80
2024/01/23 00:25:08;;;;;;;6.80;6.50;;;9.00;32.70;;;;;;6281226;22;20400;-79
2024/01/23 00:27:33;;;;;;;6.73;6.40;;;9.10;33.40;;;;;;6255456;22;20588;-78
2024/01/23 00:29:59;;;;;;;6.47;6.17;;;9.10;33.30;;;;;;6282083;22;20147;-78
2024/01/23 00:32:30;;;;;;;6.90;6.60;;;9.20;33.20;;;;;;6241394;23;20258;-79
2024/01/23 00:34:55;;;;;;;6.90;6.50;;;9.30;32.20;;;;;;6250523;23;20294;-79
2024/01/23 00:37:21;;;;;;;6.80;6.60;;;9.30;31.90;;;;;;6249304;23;20367;-80
2024/01/23 00:39:46;;;;;;;7.77;7.20;;;9.30;32.60;;;;;;6248937;23;20158;-78
2024/01/23 00:42:12;;;;;;;7.93;7.53;;;9.40;32.50;;;;;;6248989;22;20178;-78
2024/01/23 00:44:37;;;;;;;7.20;6.80;;;9.50;32.10;;;;;;6222613;23;20151;-79
2024/01/23 00:47:03;;;;;;;6.93;6.57;;;9.40;30.90;;;;;;6250620;23;20163;-79
2024/01/23 00:49:29;;;;;;;7.37;6.93;;;9.20;31.00;;;;;;6250685;23;20148;-80
2024/01/23 00:51:54;;;;;;;7.63;7.03;;;9.10;30.80;;;;;;6251607;22;20298;-79
2024/01/23 00:54:20;;;;;;;7.90;7.30;;;9.10;31.70;;;;;;6224000;23;20211;-78
2024/01/23 00:56:46;;;;;;;7.73;7.23;;;9.10;31.30;;;;;;6252643;23;20152;-80
2024/01/23 00:59:12;;;;;;;7.47;6.87;;;9.00;30.90;;;;;;6252049;23;20389;-79
2024/01/23 01:01:38;;;;;;;6.93;6.50;;;8.90;31.50;;;;;;6252055;22;20198;-79
2024/01/23 01:04:04;;;;;;;7.90;7.20;;;9.00;31.20;;;;;;6250005;23;20414;-79
2024/01/23 01:06:30;;;;;;;7.30;6.90;;;8.90;31.50;;;;;;6223873;23;20382;-77
2024/01/23 01:08:55;;;;;;;7.60;7.10;;;8.90;31.60;;;;;;6222698;23;20605;-78
2024/01/23 01:11:21;;;;;;;8.23;7.70;;;8.70;32.90;;;;;;6251235;23;20194;-78
2024/01/23 01:13:47;;;;;;;8.90;7.70;;;8.60;34.50;;;;;;6222453;23;20519;-78
2024/01/23 01:16:12;;;;;;;8.30;7.50;;;8.40;35.00;;;;;;6223732;23;20170;-79
2024/01/23 01:18:40;;;;;;;8.03;7.40;;;8.10;35.90;;;;;;6252735;23;21006;-78
2024/01/23 01:21:05;;;;;;;8.27;7.50;;;8.10;37.20;;;;;;6225773;23;20186;-78
2024/01/23 01:23:31;;;;;;;7.57;7.00;;;8.00;37.30;;;;;;6222634;23;20437;-78
2024/01/23 01:25:56;;;;;;;7.90;7.27;;;8.00;37.10;;;;;;6223244;23;20382;-77
2024/01/23 01:28:22;;;;;;;7.20;6.70;;;8.10;37.60;;;;;;6223577;23;20147;-79
2024/01/23 01:30:48;;;;;;;7.70;7.10;;;8.00;37.20;;;;;;6223657;23;20151;-80
2024/01/23 01:33:13;;;;;;;7.07;6.57;;;8.00;37.70;;;;;;6249983;22;20179;-78
2024/01/23 01:35:38;;;;;;;6.60;6.10;;;8.00;38.20;;;;;;6249730;23;20182;-77
2024/01/23 01:38:04;;;;;;;7.67;7.07;;;8.10;38.20;;;;;;6249790;23;20163;-79
2024/01/23 01:40:29;;;;;;;7.00;6.50;;;8.10;38.10;;;;;;6223778;23;20151;-78
2024/01/23 01:42:55;;;;;;;6.83;6.43;;;8.00;38.00;;;;;;6249375;22;20187;-78
2024/01/23 01:45:21;;;;;;;7.57;7.07;;;8.10;38.50;;;;;;6250204;23;20148;-78
2024/01/23 01:47:47;;;;;;;10.23;7.07;;;8.10;38.00;;;;;;6251817;23;20183;-79
2024/01/23 01:50:13;;;;;;;8.10;7.30;;;8.10;37.90;;;;;;6250758;23;20486;-79
2024/01/23 01:52:41;;;;;;;6.97;6.53;;;8.20;37.90;;;;;;6250440;22;20402;-78
2024/01/23 01:55:08;;;;;;;7.17;6.77;;;8.10;37.90;;;;;;6222718;23;20473;-79
2024/01/23 01:57:36;;;;;;;7.63;7.13;;;8.10;38.20;;;;;;6251046;23;20382;-78
2024/01/23 02:00:03;;;;;;;7.43;6.80;;;8.20;37.70;;;;;;6224163;23;20387;-79
2024/01/23 02:02:28;;;;;;;7.37;6.97;;;8.10;37.50;;;;;;6250600;22;20425;-78
2024/01/23 02:04:54;;;;;;;7.63;7.20;;;8.10;37.50;;;;;;6251680;23;20370;-78
2024/01/23 02:07:20;;;;;;;7.00;6.50;;;8.00;38.50;;;;;;6226615;23;20151;-78
2024/01/23 02:09:45;;;;;;;7.40;6.83;;;8.00;38.60;;;;;;6225128;23;20202;-79
2024/01/23 02:12:11;;;;;;;7.77;7.27;;;8.00;38.80;;;;;;6222761;23;20175;-79
2024/01/23 02:14:36;;;;;;;7.07;6.67;;;8.00;39.50;;;;;;6223210;23;20541;-78
2024/01/23 02:17:02;;;;;;;8.50;7.90;;;8.00;39.50;;;;;;6250171;23;20226;-78
2024/01/23 02:19:27;;;;;;;7.57;7.07;;;8.00;39.40;;;;;;6250233;23;20564;-78
2024/01/23 02:21:54;;;;;;;7.30;6.80;;;8.00;39.40;;;;;;6250044;22;20178;-78
2024/01/23 02:24:19;;;;;;;6.90;6.50;;;8.10;40.10;;;;;;6249586;23;20183;-79
2024/01/23 02:26:45;;;;;;;6.97;6.47;;;8.30;38.80;;;;;;6222690;23;20432;-78
2024/01/23 02:29:11;;;;;;;7.70;7.07;;;8.30;38.60;;;;;;6222680;23;20143;-79
2024/01/23 02:31:37;;;;;;;7.30;6.80;;;8.30;38.30;;;;;;6251379;22;20144;-79
2024/01/23 02:34:02;;;;;;;8.13;7.43;;;8.30;38.60;;;;;;6223491;23;20390;-79
2024/01/23 02:36:28;;;;;;;7.60;7.10;;;8.40;38.40;;;;;;6224639;23;20374;-79
2024/01/23 02:38:53;;;;;;;7.87;7.37;;;8.50;38.80;;;;;;6251246;23;20220;-79
2024/01/23 02:41:19;;;;;;;8.07;7.27;;;8.70;38.10;;;;;;6251140;23;20147;-79
2024/01/23 02:43:44;;;;;;;9.23;8.43;;;8.80;36.50;;;;;;6249421;22;20553;-79
2024/01/23 02:46:10;;;;;;;8.27;7.57;;;8.70;35.30;;;;;;6249085;23;20214;-80
2024/01/23 02:48:35;;;;;;;8.80;7.97;;;8.50;33.30;;;;;;6223682;23;20186;-79
2024/01/23 02:51:01;;;;;;;13.13;8.60;;;8.50;33.50;;;;;;6249708;23;20483;-77
2024/01/23 02:53:26;;;;;;;8.30;7.67;;;8.40;33.20;;;;;;6249452;22;20186;-79
2024/01/23 02:55:52;;;;;;;8.53;7.80;;;8.40;33.60;;;;;;6248326;23;20623;-78
2024/01/23 02:58:20;;;;;;;8.67;7.80;;;8.30;33.60;;;;;;6249316;23;20234;-79
2024/01/23 03:00:46;;;;;;;10.87;8.53;;;8.30;33.60;;;;;;6222370;23;20159;-79
2024/01/23 03:03:11;;;;;;;9.47;8.53;;;8.30;33.00;;;;;;6249687;22;20826;-78
2024/01/23 03:05:37;;;;;;;8.60;8.00;;;8.20;33.20;;;;;;6222214;23;20180;-79
2024/01/23 03:08:04;;;;;;;9.17;8.27;;;8.20;33.30;;;;;;6223070;23;20156;-78
2024/01/23 03:10:30;;;;;;;9.13;8.47;;;8.10;33.00;;;;;;6249488;23;20147;-78
2024/01/23 03:12:55;;;;;;;9.53;8.53;;;8.20;32.90;;;;;;6249297;22;20390;-79
2024/01/23 03:15:21;;;;;;;8.93;8.13;;;8.30;33.10;;;;;;6221078;23;20421;-78
2024/01/23 03:17:47;;;;;;;11.70;9.50;;;8.30;32.60;;;;;;6249407;23;20227;-79
2024/01/23 03:20:12;;;;;;;8.77;7.83;;;8.30;33.00;;;;;;6248697;23;20480;-77
2024/01/23 03:22:38;;;;;;;10.50;8.57;;;8.30;32.70;;;;;;6229425;23;20191;-79
2024/01/23 03:25:05;;;;;;;10.00;9.10;;;8.20;32.20;;;;;;6247639;23;20199;-79
2024/01/23 03:27:31;;;;;;;13.60;8.80;;;8.10;32.50;;;;;;6247623;23;20205;-80
2024/01/23 03:29:56;;;;;;;9.90;8.70;;;8.00;32.80;;;;;;6249196;22;20446;-79
2024/01/23 03:32:22;;;;;;;10.23;8.20;;;8.10;32.70;;;;;;6248754;22;20398;-78
2024/01/23 03:34:49;;;;;;;8.43;7.77;;;8.10;33.30;;;;;;6246920;23;20159;-79
2024/01/23 03:37:15;;;;;;;9.80;7.87;;;8.20;31.70;;;;;;6247464;23;20156;-79
2024/01/23 03:39:41;;;;;;;8.70;7.77;;;8.20;31.90;;;;;;6248670;22;20381;-78
2024/01/23 03:42:07;;;;;;;9.50;8.60;;;8.30;32.40;;;;;;6250350;22;20390;-79
2024/01/23 03:44:32;;;;;;;9.17;8.33;;;8.30;31.10;;;;;;6251439;23;20151;-78
2024/01/23 03:46:58;;;;;;;9.40;8.40;;;8.30;31.30;;;;;;6248488;22;20374;-79
2024/01/23 03:49:24;;;;;;;9.07;8.30;;;8.30;31.70;;;;;;6248099;23;20214;-77
2024/01/23 03:51:50;;;;;;;12.80;8.90;;;8.20;31.00;;;;;;6248386;22;20552;-78
2024/01/23 03:54:15;;;;;;;13.17;8.53;;;8.30;31.00;;;;;;6248147;23;20159;-79
2024/01/23 03:56:41;;;;;;;10.17;8.60;;;8.30;31.00;;;;;;6250224;23;20374;-78
2024/01/23 03:59:07;;;;;;;10.60;9.60;;;8.30;31.00;;;;;;6248153;23;20160;-78
2024/01/23 04:01:32;;;;;;;9.97;8.97;;;8.30;30.80;;;;;;6251445;22;20378;-78
2024/01/23 04:03:58;;;;;;;9.50;8.63;;;8.40;31.10;;;;;;6250829;23;20585;-79
2024/01/23 04:06:23;;;;;;;9.07;8.03;;;8.40;31.00;;;;;;6250478;23;20151;-79
2024/01/23 04:08:49;;;;;;;9.40;8.70;;;8.40;29.70;;;;;;6249848;23;20151;-78
2024/01/23 04:11:14;;;;;;;10.60;9.60;;;8.50;29.60;;;;;;6249282;23;20178;-78
2024/01/23 04:13:40;;;;;;;11.60;9.10;;;8.40;29.80;;;;;;6246729;22;20232;-77
2024/01/23 04:16:06;;;;;;;9.77;8.90;;;8.50;28.70;;;;;;6248810;23;20201;-79
2024/01/23 04:18:32;;;;;;;13.77;9.27;;;8.50;28.30;;;;;;6250658;22;20152;-78
2024/01/23 04:20:58;;;;;;;10.50;8.70;;;8.60;28.60;;;;;;6250553;23;20436;-78
2024/01/23 04:23:23;;;;;;;10.63;9.20;;;8.60;28.50;;;;;;6250683;22;20184;-79
2024/01/23 04:25:49;;;;;;;10.63;8.90;;;8.60;28.30;;;;;;6248665;23;20382;-77
2024/01/23 04:28:15;;;;;;;9.90;8.67;;;8.60;28.80;;;;;;6251318;23;20762;-80
2024/01/23 04:30:40;;;;;;;8.60;7.97;;;8.60;29.50;;;;;;6224994;23;20155;-80
2024/01/23 04:33:06;;;;;;;8.30;7.60;;;8.50;29.60;;;;;;6225314;23;20175;-79
2024/01/23 04:35:32;;;;;;;9.40;8.37;;;8.60;29.70;;;;;;6224657;23;20170;-80
2024/01/23 04:37:58;;;;;;;8.37;7.67;;;8.50;30.00;;;;;;6225487;23;20172;-80
2024/01/23 04:40:23;;;;;;;10.40;7.80;;;8.50;30.70;;;;;;6225451;23;20418;-80
2024/01/23 04:42:49;;;;;;;10.13;8.87;;;8.40;30.30;;;;;;6225501;23;20237;-80
2024/01/23 04:45:15;;;;;;;11.97;8.27;;;8.30;31.00;;;;;;6252158;23;20152;-80
2024/01/23 04:47:40;;;;;;;9.60;8.90;;;8.40;32.00;;;;;;6253781;23;20143;-80
2024/01/23 04:50:06;;;;;;;9.43;8.63;;;8.60;31.80;;;;;;6258379;23;20143;-79
2024/01/23 04:52:32;;;;;;;10.70;8.20;;;8.70;30.90;;;;;;6246232;22;20183;-78
2024/01/23 04:54:57;;;;;;;10.63;9.33;;;8.60;31.30;;;;;;6272596;22;20377;-78
2024/01/23 04:57:24;;;;;;;11.07;8.83;;;8.60;31.30;;;;;;6247443;23;20158;-78
2024/01/23 04:59:50;;;;;;;8.60;7.90;;;8.60;31.20;;;;;;6273621;22;20143;-79
2024/01/23 05:02:16;;;;;;;9.17;8.40;;;8.50;31.20;;;;;;6246467;23;20402;-79
2024/01/23 05:04:41;;;;;;;9.17;8.37;;;8.40;31.70;;;;;;6248493;23;20541;-77
2024/01/23 05:07:07;;;;;;;9.63;8.83;;;8.40;32.20;;;;;;6249016;23;20488;-79
2024/01/23 05:09:32;;;;;;;9.57;8.83;;;8.40;31.80;;;;;;6223012;23;20222;-78
2024/01/23 05:11:58;;;;;;;9.83;9.10;;;8.30;32.20;;;;;;6222376;23;20167;-78
2024/01/23 05:14:24;;;;;;;9.87;9.10;;;8.30;33.00;;;;;;6247903;23;20155;-78
2024/01/23 05:16:49;;;;;;;10.07;8.40;;;8.20;32.60;;;;;;6222760;23;20507;-77
2024/01/23 05:19:15;;;;;;;9.33;8.50;;;8.30;33.90;;;;;;6253104;23;20186;-79
2024/01/23 05:21:40;;;;;;;8.07;7.67;;;8.30;33.10;;;;;;6251785;22;20594;-79
2024/01/23 05:24:06;;;;;;;7.60;7.20;;;8.40;33.10;;;;;;6251273;23;20167;-78
2024/01/23 05:26:32;;;;;;;9.13;8.63;;;8.30;33.40;;;;;;6255726;23;20467;-79
2024/01/23 05:28:57;;;;;;;9.20;8.63;;;8.20;34.40;;;;;;6251253;23;20605;-78
2024/01/23 05:31:23;;;;;;;8.20;7.60;;;8.30;34.40;;;;;;6250613;22;20228;-77
2024/01/23 05:33:48;;;;;;;9.50;8.60;;;8.10;34.60;;;;;;6223484;23;20155;-79
2024/01/23 05:36:14;;;;;;;9.40;8.50;;;8.10;35.20;;;;;;6250353;23;20294;-78
2024/01/23 05:38:39;;;;;;;8.10;7.73;;;8.10;35.70;;;;;;6249603;23;20155;-77
2024/01/23 05:41:05;;;;;;;8.30;7.87;;;8.00;34.70;;;;;;6250286;23;20156;-78
2024/01/23 05:43:30;;;;;;;8.90;8.40;;;8.10;34.90;;;;;;6248021;22;20178;-78
2024/01/23 05:45:56;;;;;;;8.40;7.90;;;8.10;35.10;;;;;;6247608;23;20463;-78
2024/01/23 05:48:21;;;;;;;8.50;7.70;;;8.00;34.40;;;;;;6220902;23;20159;-77
2024/01/23 05:50:47;;;;;;;10.73;9.93;;;8.10;34.80;;;;;;6248996;23;20155;-77
2024/01/23 05:53:13;;;;;;;7.67;7.20;;;8.10;34.60;;;;;;6250331;22;20178;-78
2024/01/23 05:55:39;;;;;;;8.23;7.50;;;8.10;34.20;;;;;;6249615;23;20231;-79
2024/01/23 05:58:05;;;;;;;8.40;7.80;;;8.10;34.30;;;;;;6250707;23;20588;-78
2024/01/23 06:00:31;;;;;;;10.87;10.37;;;8.10;34.10;;;;;;6249168;23;20179;-79
2024/01/23 06:02:56;;;;;;;10.70;10.30;;;8.00;33.70;;;;;;6222513;23;20418;-78
2024/01/23 06:05:22;;;;;;;10.93;10.40;;;8.10;34.50;;;;;;6221405;23;20611;-79
2024/01/23 06:07:50;;;;;;;10.70;10.10;;;8.30;33.80;;;;;;6248298;23;20143;-79
2024/01/23 06:10:16;;;;;;;11.77;11.17;;;8.30;32.90;;;;;;6249812;23;20148;-78
2024/01/23 06:12:42;;;;;;;11.60;11.10;;;8.20;33.70;;;;;;6250344;22;20501;-78
2024/01/23 06:15:08;;;;;;;11.70;10.90;;;8.30;33.90;;;;;;6247930;23;20374;-78
2024/01/23 06:17:34;;;;;;;12.03;11.30;;;8.20;33.80;;;;;;6246914;23;20401;-78
2024/01/23 06:20:02;;;;;;;11.20;10.77;;;8.10;34.50;;;;;;6221695;23;20414;-79
2024/01/23 06:22:28;;;;;;;11.70;11.00;;;8.20;34.80;;;;;;6236681;22;20563;-77
2024/01/23 06:25:04;;;;;;;11.90;11.20;;;8.10;34.30;;;;;;6276175;22;20409;-79
2024/01/23 06:27:30;;;;;;;12.57;11.80;;;8.10;34.70;;;;;;6277564;22;20238;-78
2024/01/23 06:29:55;;;;;;;11.10;10.70;;;8.10;34.40;;;;;;6278780;22;20373;-78
2024/01/23 06:32:21;;;;;;;15.33;14.43;;;8.20;32.90;;;;;;6272624;22;20564;-78
2024/01/23 06:34:46;;;;;;;12.83;11.93;;;8.30;34.10;;;;;;6243942;23;20462;-78
2024/01/23 06:37:12;;;;;;;10.63;10.10;;;8.50;33.20;;;;;;6244172;23;20226;-77
2024/01/23 06:39:39;;;;;;;11.37;10.70;;;8.50;33.00;;;;;;6244491;23;20178;-78
2024/01/23 06:42:04;;;;;;;10.90;10.20;;;8.70;32.20;;;;;;6244607;22;20521;-78
2024/01/23 06:44:30;;;;;;;11.03;10.53;;;8.60;32.30;;;;;;6246088;23;20425;-79
2024/01/23 06:46:55;;;;;;;10.77;10.33;;;8.60;31.90;;;;;;6252905;23;20154;-80
2024/01/23 06:49:34;;;;;;;10.60;9.97;;;8.60;32.60;;;;;;6250538;23;20243;-79
2024/01/23 06:52:00;;;;;;;10.50;9.90;;;8.80;31.90;;;;;;6249157;22;20175;-79
2024/01/23 06:54:26;;;;;;;10.60;10.07;;;8.80;31.40;;;;;;6250482;22;20389;-78
2024/01/23 06:56:51;;;;;;;10.20;9.70;;;8.50;31.70;;;;;;6248678;23;20374;-78
2024/01/23 06:59:17;;;;;;;9.80;9.40;;;8.30;32.60;;;;;;6246829;23;20159;-78
2024/01/23 07:01:43;;;;;;;9.23;8.73;;;8.20;32.80;;;;;;6246357;22;20162;-78
2024/01/23 07:04:08;;;;;;;7.87;7.50;;;8.10;33.20;;;;;;6245852;23;20179;-78
2024/01/23 07:06:34;;;;;;;8.53;8.07;;;8.10;33.60;;;;;;6245486;23;20390;-79
2024/01/23 07:08:59;;;;;;;8.47;8.07;;;7.90;34.30;;;;;;6248994;23;20147;-80
2024/01/23 07:11:25;;;;;;;8.77;8.47;;;7.70;35.00;;;;;;6248220;22;20162;-79
2024/01/23 07:13:51;;;;;;;8.57;8.20;;;7.60;35.10;;;;;;6250487;23;20146;-80
2024/01/23 07:16:17;;;;;;;8.87;8.37;;;7.60;35.30;;;;;;6251040;23;20162;-79
2024/01/23 07:18:42;;;;;;;9.37;8.77;;;7.50;35.60;;;;;;6250449;23;20155;-79
2024/01/23 07:21:09;;;;;;;9.50;8.90;;;7.50;36.60;;;;;;6249182;23;20156;-81
2024/01/23 07:23:35;;;;;;;8.93;8.43;;;7.50;36.10;;;;;;6249327;22;20206;-80
2024/01/23 07:26:01;;;;;;;9.70;9.10;;;7.60;36.20;;;;;;6223743;23;20374;-81
2024/01/23 07:28:26;;;;;;;8.60;8.10;;;7.50;35.50;;;;;;6250391;23;20401;-80
2024/01/23 07:30:52;;;;;;;7.80;7.30;;;7.40;36.00;;;;;;6250749;23;20151;-80
2024/01/23 07:33:17;;;;;;;7.83;7.40;;;7.40;36.20;;;;;;6250075;22;20621;-80
2024/01/23 07:35:43;;;;;;;8.30;7.90;;;7.30;35.30;;;;;;6221777;23;20162;-80
2024/01/23 07:38:11;;;;;;;8.77;8.17;;;7.30;35.80;;;;;;6252905;23;20152;-79
2024/01/23 07:40:40;;;;;;;9.77;9.27;;;7.30;35.90;;;;;;6251316;23;20250;-80
2024/01/23 07:43:06;;;;;;;12.03;11.43;;;7.40;35.80;;;;;;6249371;22;20732;-80
2024/01/23 07:45:32;;;;;;;10.17;9.47;;;7.40;35.10;;;;;;6250098;23;20385;-80
2024/01/23 07:47:57;;;;;;;9.50;9.00;;;7.40;34.30;;;;;;6227063;23;20167;-80
2024/01/23 07:50:23;;;;;;;9.97;9.37;;;7.50;34.00;;;;;;6231093;23;20155;-80
2024/01/23 07:52:48;;;;;;;9.20;8.67;;;7.40;34.20;;;;;;6227225;23;20206;-80
2024/01/23 07:55:14;;;;;;;10.13;9.43;;;7.40;34.30;;;;;;6224634;23;20197;-78
2024/01/23 07:57:40;;;;;;;10.10;9.50;;;7.30;34.10;;;;;;6225990;23;20493;-80
2024/01/23 08:00:07;;;;;;;10.30;9.67;;;7.30;34.20;;;;;;6225671;23;21042;-79
2024/01/23 08:02:33;;;;;;;10.73;9.90;;;7.40;34.20;;;;;;6225831;23;20187;-81
2024/01/23 08:04:59;;;;;;;10.33;9.63;;;7.40;34.20;;;;;;6252413;23;20372;-81
2024/01/23 08:07:25;;;;;;;10.43;9.83;;;7.40;34.10;;;;;;6252175;23;20402;-80
2024/01/23 08:09:50;;;;;;;8.90;8.40;;;7.40;34.50;;;;;;6253352;23;20374;-80
2024/01/23 08:12:16;;;;;;;8.93;8.53;;;7.20;35.30;;;;;;6229250;23;20175;-81
2024/01/23 08:14:42;;;;;;;9.00;8.60;;;7.30;35.80;;;;;;6260554;23;20171;-80
2024/01/23 08:17:07;;;;;;;11.70;9.67;;;7.20;35.40;;;;;;6270521;23;20143;-80
2024/01/23 08:19:33;;;;;;;9.80;9.30;;;7.20;35.70;;;;;;6244650;23;20166;-79
2024/01/23 08:21:58;;;;;;;9.47;9.10;;;7.20;36.10;;;;;;6274284;22;20707;-80
2024/01/23 08:24:24;;;;;;;10.70;10.07;;;7.30;35.70;;;;;;6247701;22;20190;-80
2024/01/23 08:26:52;;;;;;;10.90;10.20;;;7.40;35.60;;;;;;6248068;23;20144;-80
2024/01/23 08:29:19;;;;;;;9.50;9.00;;;7.50;34.60;;;;;;6272730;22;20139;-79
2024/01/23 08:31:45;;;;;;;10.60;10.00;;;7.50;35.20;;;;;;6258980;22;21089;-80
2024/01/23 08:34:10;;;;;;;10.73;10.00;;;7.70;34.70;;;;;;6224643;23;20385;-78
2024/01/23 08:36:36;;;;;;;13.93;12.83;;;7.60;33.50;;;;;;6251737;23;20155;-80
2024/01/23 08:39:01;;;;;;;10.60;9.70;;;7.80;34.00;;;;;;6227370;23;20155;-79
2024/01/23 08:41:27;;;;;;;11.87;10.80;;;7.90;33.50;;;;;;6250634;22;20147;-78
2024/01/23 08:43:52;;;;;;;9.90;9.40;;;7.90;33.00;;;;;;6249554;23;20179;-78
2024/01/23 08:46:18;;;;;;;10.77;9.97;;;8.10;33.50;;;;;;6251243;23;20147;-78
2024/01/23 08:48:43;;;;;;;10.80;10.10;;;8.10;32.80;;;;;;6250555;23;20155;-78
2024/01/23 08:51:10;;;;;;;10.67;9.77;;;8.10;32.20;;;;;;6223514;23;20182;-79
2024/01/23 08:53:36;;;;;;;11.73;10.90;;;8.20;32.40;;;;;;6249403;22;20171;-78
2024/01/23 08:56:02;;;;;;;10.53;9.60;;;8.30;32.10;;;;;;6248829;23;20382;-78
2024/01/23 08:58:27;;;;;;;10.87;9.90;;;8.40;31.10;;;;;;6248752;23;20744;-80
2024/01/23 09:00:53;;;;;;;10.10;9.50;;;8.40;30.80;;;;;;6248865;23;20205;-78
2024/01/23 09:03:18;;;;;;;11.47;10.60;;;8.30;30.40;;;;;;6248923;22;20637;-79
2024/01/23 09:05:44;;;;;;;11.47;10.73;;;8.30;30.50;;;;;;6252704;23;20158;-78
2024/01/23 09:08:09;;;;;;;10.67;10.07;;;8.30;31.00;;;;;;6227154;23;20147;-77
2024/01/23 09:10:35;;;;;;;10.70;9.90;;;8.40;30.60;;;;;;6254703;23;20158;-79
2024/01/23 09:13:01;;;;;;;11.13;10.43;;;8.30;30.20;;;;;;6248983;22;20191;-78
2024/01/23 09:15:26;;;;;;;10.40;9.70;;;8.20;31.10;;;;;;6223056;23;20239;-78
2024/01/23 09:17:52;;;;;;;9.50;9.00;;;8.10;31.30;;;;;;6221127;23;20171;-79
2024/01/23 09:20:17;;;;;;;10.60;9.80;;;8.00;31.80;;;;;;6221674;23;20155;-79
2024/01/23 09:22:43;;;;;;;9.80;9.20;;;7.90;32.40;;;;;;6247241;22;20187;-77
2024/01/23 09:25:09;;;;;;;10.20;9.50;;;7.80;32.90;;;;;;6245644;23;20170;-79
2024/01/23 09:27:34;;;;;;;9.70;9.20;;;7.70;33.50;;;;;;6246564;23;20844;-78
2024/01/23 09:30:00;;;;;;;9.37;8.60;;;7.80;33.40;;;;;;6246967;23;20144;-78
2024/01/23 09:32:26;;;;;;;9.33;8.83;;;7.80;33.60;;;;;;6249180;22;20175;-77
2024/01/23 09:34:51;;;;;;;8.90;8.40;;;7.90;33.20;;;;;;6220291;23;20162;-78
2024/01/23 09:37:17;;;;;;;9.73;9.03;;;8.10;33.30;;;;;;6248492;23;20173;-81
2024/01/23 09:39:42;;;;;;;9.00;8.40;;;8.20;33.40;;;;;;6223456;23;20154;-78
2024/01/23 09:42:09;;;;;;;8.53;8.03;;;8.30;32.70;;;;;;6248559;22;20635;-79
2024/01/23 09:44:36;;;;;;;7.00;6.60;;;8.20;32.20;;;;;;6247933;23;20202;-77
2024/01/23 09:47:03;;;;;;;7.90;7.50;;;8.20;32.50;;;;;;6223074;23;20378;-77
2024/01/23 09:49:30;;;;;;;8.73;8.13;;;8.20;32.10;;;;;;6256727;23;20438;-78
2024/01/23 09:52:00;;;;;;;8.63;8.23;;;8.20;33.40;;;;;;6255745;22;20719;-80
2024/01/23 09:54:27;;;;;;;9.07;8.53;;;8.20;33.30;;;;;;6251132;23;20366;-80
2024/01/23 09:56:53;;;;;;;9.00;8.60;;;8.20;33.50;;;;;;6251923;23;20406;-80
2024/01/23 09:59:20;;;;;;;8.50;8.10;;;8.10;33.70;;;;;;6252308;23;20375;-78
2024/01/23 10:01:47;;;;;;;8.70;8.33;;;8.00;33.70;;;;;;6225057;22;20410;-80
2024/01/23 10:04:16;;;;;;;8.50;8.10;;;7.90;33.70;;;;;;6257407;23;20466;-80
2024/01/23 10:06:42;;;;;;;7.77;7.47;;;7.90;33.60;;;;;;6260343;23;20388;-80
2024/01/23 10:09:08;;;;;;;8.57;8.23;;;8.00;33.50;;;;;;6252615;23;20378;-81
2024/01/23 10:11:34;;;;;;;7.90;7.40;;;8.00;33.80;;;;;;6253907;22;20147;-79
2024/01/23 10:14:04;;;;;;;8.23;7.70;;;8.00;32.70;;;;;;6226776;23;20167;-79
2024/01/23 10:16:30;;;;;;;8.23;7.77;;;8.00;32.20;;;;;;6230118;23;20374;-79
2024/01/23 10:18:56;;;;;;;8.40;8.00;;;8.10;32.20;;;;;;6231080;23;20399;-79
2024/01/23 10:21:22;;;;;;;8.67;8.27;;;8.10;33.00;;;;;;6251389;23;20147;-81
2024/01/23 10:23:49;;;;;;;8.70;8.20;;;8.20;32.90;;;;;;6250155;22;20433;-81
2024/01/23 10:26:18;;;;;;;10.13;9.27;;;8.40;32.30;;;;;;6252743;23;20370;-79
2024/01/23 10:28:45;;;;;;;9.60;9.00;;;8.40;32.10;;;;;;6226071;23;20375;-77
2024/01/23 10:31:11;;;;;;;8.37;7.83;;;8.30;31.60;;;;;;6252670;23;20371;-80
2024/01/23 10:33:37;;;;;;;8.30;7.90;;;8.40;32.00;;;;;;6226614;23;20466;-81
2024/01/23 10:36:05;;;;;;;9.10;8.60;;;8.40;31.20;;;;;;6226141;23;20381;-82
2024/01/23 10:38:31;;;;;;;9.03;8.53;;;8.40;31.90;;;;;;6235456;23;20383;-83
2024/01/23 10:40:59;;;;;;;8.73;8.33;;;8.40;32.00;;;;;;6232874;23;20382;-80
2024/01/23 10:43:27;;;;;;;8.87;8.47;;;8.50;32.80;;;;;;6228166;23;20430;-80
2024/01/23 10:45:54;;;;;;;8.97;8.40;;;8.70;32.30;;;;;;6250492;23;20371;-80
2024/01/23 10:48:20;;;;;;;8.90;8.30;;;8.80;31.40;;;;;;6250850;23;20372;-80
2024/01/23 10:50:51;;;;;;;9.13;8.60;;;8.90;31.50;;;;;;6250272;23;20943;-80
2024/01/23 10:53:18;;;;;;;9.33;8.63;;;8.90;31.50;;;;;;6223998;23;20181;-81
2024/01/23 10:55:46;;;;;;;9.40;8.80;;;8.80;31.00;;;;;;6249914;23;20816;-79
2024/01/23 10:58:24;;;;;;;9.80;8.70;;;8.80;31.40;;;;;;6251390;23;20402;-80
2024/01/23 11:00:52;;;;;;;9.20;8.53;;;8.90;31.40;;;;;;6224140;23;20378;-81
2024/01/23 11:03:19;;;;;;;8.00;7.50;;;8.90;30.70;;;;;;6223428;23;20426;-80
2024/01/23 11:06:03;;;;;;;9.57;8.87;;;8.90;31.20;;;;;;6250344;23;20376;-79
2024/01/23 11:08:36;;;;;;;8.97;8.47;;;9.00;31.60;;;;;;6249169;23;20374;-78
2024/01/23 11:11:25;;;;;;;10.07;9.27;;;9.20;30.10;;;;;;6223638;23;20461;-79
2024/01/23 11:14:09;;;;;;;9.80;9.00;;;9.20;29.60;;;;;;6234355;23;20386;-81
2024/01/23 11:16:35;;;;;;;8.87;8.23;;;9.40;29.00;;;;;;6221918;23;20382;-80
2024/01/23 11:19:00;;;;;;;9.73;9.10;;;9.40;29.00;;;;;;6249861;23;20863;-80
2024/01/23 11:21:26;;;;;;;10.00;9.40;;;9.40;27.60;;;;;;6249691;22;20151;-80
2024/01/23 11:24:02;;;;;;;8.97;8.23;;;9.40;27.10;;;;;;6249981;23;20174;-81
2024/01/23 11:26:28;;;;;;;9.40;8.57;;;9.60;27.70;;;;;;6223304;23;20585;-79
2024/01/23 11:28:58;;;;;;;10.33;9.27;;;9.60;26.40;;;;;;6225042;23;20875;-79
2024/01/23 11:31:26;;;;;;;9.83;9.07;;;9.60;26.30;;;;;;6225768;23;20436;-80
2024/01/23 11:33:52;;;;;;;9.23;8.37;;;9.60;26.90;;;;;;6226184;23;20468;-80
2024/01/23 11:36:23;;;;;;;11.73;10.03;;;9.80;25.50;;;;;;6252236;23;20719;-78
2024/01/23 11:39:00;;;;;;;9.93;9.03;;;10.00;23.20;;;;;;6225733;23;20385;-80
2024/01/23 11:41:27;;;;;;;8.70;8.10;;;10.00;22.40;;;;;;6253055;22;20366;-79
2024/01/23 11:44:14;;;;;;;11.13;10.13;;;9.70;21.70;;;;;;6227488;23;20426;-79
2024/01/23 11:46:40;;;;;;;8.73;8.13;;;9.50;22.90;;;;;;6255174;23;20391;-79
2024/01/23 11:49:06;;;;;;;9.13;8.43;;;9.40;22.30;;;;;;6254255;23;20372;-80
2024/01/23 11:51:35;;;;;;;11.50;7.87;;;9.40;21.70;;;;;;6227478;22;20465;-79
2024/01/23 11:54:04;;;;;;;9.03;8.43;;;9.40;22.00;;;;;;6226751;23;20213;-80
2024/01/23 11:56:30;;;;;;;9.50;8.40;;;9.40;22.00;;;;;;6253555;23;20432;-81
2024/01/23 11:58:59;;;;;;;9.83;8.60;;;9.40;21.70;;;;;;6225999;23;20382;-81
2024/01/23 12:01:27;;;;;;;9.40;8.17;;;9.30;22.10;;;;;;6225737;23;20242;-81
2024/01/23 12:03:54;;;;;;;10.30;9.40;;;9.30;22.40;;;;;;6252074;23;20413;-80
2024/01/23 12:06:21;;;;;;;8.40;7.70;;;9.40;21.30;;;;;;6253219;23;20390;-81
2024/01/23 12:08:46;;;;;;;9.37;8.60;;;9.50;22.50;;;;;;6252642;23;20377;-83
2024/01/23 12:11:18;;;;;;;9.80;8.90;;;9.60;22.60;;;;;;6251984;23;20396;-81
2024/01/23 12:13:48;;;;;;;9.27;8.37;;;9.60;22.20;;;;;;6224377;23;20181;-81
2024/01/23 12:16:14;;;;;;;9.00;8.30;;;9.60;22.20;;;;;;6252399;23;20458;-81
2024/01/23 12:18:40;;;;;;;9.53;8.60;;;9.60;22.00;;;;;;6253819;23;20382;-81
2024/01/23 12:21:06;;;;;;;15.27;14.00;;;9.60;21.10;;;;;;6252592;23;20704;-81
2024/01/23 12:23:33;;;;;;;8.67;7.80;;;9.60;21.90;;;;;;6291290;22;20440;-79
2024/01/23 12:25:59;;;;;;;9.77;8.90;;;9.60;22.30;;;;;;6310880;22;20478;-78
2024/01/23 12:28:26;;;;;;;10.33;9.33;;;9.70;21.80;;;;;;6313180;22;20365;-78
2024/01/23 12:30:52;;;;;;;9.33;7.73;;;9.60;21.50;;;;;;6281656;22;20710;-78
2024/01/23 12:33:18;;;;;;;8.97;7.97;;;9.70;21.40;;;;;;6256002;22;20721;-78
2024/01/23 12:35:46;;;;;;;8.27;7.57;;;9.90;21.40;;;;;;6309286;22;20367;-77
2024/01/23 12:38:18;;;;;;;14.00;8.90;;;9.90;21.00;;;;;;6308705;22;20150;-77
2024/01/23 12:40:45;;;;;;;8.60;8.00;;;9.90;20.50;;;;;;6307926;22;20365;-76
2024/01/23 12:43:11;;;;;;;8.93;8.20;;;9.80;21.20;;;;;;6307512;22;20422;-76
2024/01/23 12:45:37;;;;;;;9.47;8.53;;;9.70;21.20;;;;;;6306781;22;20376;-76
2024/01/23 12:48:10;;;;;;;10.03;9.10;;;9.70;21.50;;;;;;6308055;22;20845;-76
2024/01/23 12:50:37;;;;;;;9.13;8.33;;;9.60;21.10;;;;;;6284451;22;20423;-77
2024/01/23 12:53:07;;;;;;;9.60;8.70;;;9.60;21.50;;;;;;6315804;22;20424;-79
2024/01/23 12:55:33;;;;;;;9.13;8.33;;;9.50;21.50;;;;;;6295252;22;20416;-77
2024/01/23 12:57:59;;;;;;;9.20;8.30;;;9.60;22.00;;;;;;6322624;22;20877;-78
2024/01/23 13:00:25;;;;;;;8.43;7.80;;;9.50;21.80;;;;;;6292938;22;20381;-77